Battle, United Kingdom
Current Conditions -  °F | °C
As of 10:50 AM on Wednesday 22 Oct 2014 (Local Time) from EGMD Reporting Station
Clear Clear  
Wind Chill: 52°   Ceiling: Unl
Heat Index: 52°   Visibility: 6mi
Dew Point: 45°   Wind: 18mph
Humidity: 76%   Direction: 290°WNW
Pressure: 30.3"   Gusts: NA
Location:  50.92°N, 0.48°E
Report Text: EGMD 220950Z 29016KT CAVOK 11/07 Q1026
Loading
Personal Weather Stations






























Interactive Weather Map New forecast layout! Learn more

10-Day Weather Forecast

Advertisements
Track Severe Weather on mobile